sensor_id;sensor_type;location;lat;lon;timestamp;temperature;humidity
8595;DHT22;4335;48.860;9.198;2022-09-01T00:01:46;16.40;99.90
8595;DHT22;4335;48.860;9.198;2022-09-01T00:04:25;16.30;99.90
8595;DHT22;4335;48.860;9.198;2022-09-01T00:06:55;16.30;99.90
8595;DHT22;4335;48.860;9.198;2022-09-01T00:09:22;16.30;99.90
8595;DHT22;4335;48.860;9.198;2022-09-01T00:11:51;16.30;99.90
8595;DHT22;4335;48.860;9.198;2022-09-01T00:14:29;16.30;99.90
8595;DHT22;4335;48.860;9.198;2022-09-01T00:16:56;16.20;99.90
8595;DHT22;4335;48.860;9.198;2022-09-01T00:19:24;16.20;99.90
8595;DHT22;4335;48.860;9.198;2022-09-01T00:21:50;16.20;99.90
8595;DHT22;4335;48.860;9.198;2022-09-01T00:24:17;16.10;99.90
8595;DHT22;4335;48.860;9.198;2022-09-01T00:26:45;16.20;99.90
8595;DHT22;4335;48.860;9.198;2022-09-01T00:29:11;16.20;99.90
8595;DHT22;4335;48.860;9.198;2022-09-01T00:31:43;16.20;99.90
8595;DHT22;4335;48.860;9.198;2022-09-01T00:34:09;16.20;99.90
8595;DHT22;4335;48.860;9.198;2022-09-01T00:36:36;16.10;99.90
8595;DHT22;4335;48.860;9.198;2022-09-01T00:39:06;16.10;99.90
8595;DHT22;4335;48.860;9.198;2022-09-01T00:41:36;16.10;99.90
8595;DHT22;4335;48.860;9.198;2022-09-01T00:44:05;16.10;99.90
8595;DHT22;4335;48.860;9.198;2022-09-01T00:46:35;16.10;99.90
8595;DHT22;4335;48.860;9.198;2022-09-01T00:49:07;16.00;99.90
8595;DHT22;4335;48.860;9.198;2022-09-01T00:51:35;16.00;99.90
8595;DHT22;4335;48.860;9.198;2022-09-01T00:54:05;16.00;99.90
8595;DHT22;4335;48.860;9.198;2022-09-01T00:56:43;15.90;99.90
8595;DHT22;4335;48.860;9.198;2022-09-01T00:59:11;15.90;99.90
8595;DHT22;4335;48.860;9.198;2022-09-01T01:01:38;15.90;99.90
8595;DHT22;4335;48.860;9.198;2022-09-01T01:04:07;15.90;99.90
8595;DHT22;4335;48.860;9.198;2022-09-01T01:06:40;15.80;99.90
8595;DHT22;4335;48.860;9.198;2022-09-01T01:09:09;15.80;99.90
8595;DHT22;4335;48.860;9.198;2022-09-01T01:11:36;15.80;99.90
8595;DHT22;4335;48.860;9.198;2022-09-01T01:14:07;15.80;99.90
8595;DHT22;4335;48.860;9.198;2022-09-01T01:16:44;15.80;99.90
8595;DHT22;4335;48.860;9.198;2022-09-01T01:19:19;15.80;99.90
8595;DHT22;4335;48.860;9.198;2022-09-01T01:22:09;15.70;99.90
8595;DHT22;4335;48.860;9.198;2022-09-01T01:24:57;15.70;99.90
8595;DHT22;4335;48.860;9.198;2022-09-01T01:27:30;15.70;99.90
8595;DHT22;4335;48.860;9.198;2022-09-01T01:29:59;15.70;99.90
8595;DHT22;4335;48.860;9.198;2022-09-01T01:32:32;15.60;99.90
8595;DHT22;4335;48.860;9.198;2022-09-01T01:35:05;15.70;99.90
8595;DHT22;4335;48.860;9.198;2022-09-01T01:37:35;15.70;99.90
8595;DHT22;4335;48.860;9.198;2022-09-01T01:40:10;15.70;99.90
8595;DHT22;4335;48.860;9.198;2022-09-01T01:42:42;15.60;99.90
8595;DHT22;4335;48.860;9.198;2022-09-01T01:45:11;15.60;99.90
8595;DHT22;4335;48.860;9.198;2022-09-01T01:47:42;15.60;99.90
8595;DHT22;4335;48.860;9.198;2022-09-01T01:50:12;15.60;99.90
8595;DHT22;4335;48.860;9.198;2022-09-01T01:52:42;15.60;99.90
8595;DHT22;4335;48.860;9.198;2022-09-01T01:55:10;15.60;99.90
8595;DHT22;4335;48.860;9.198;2022-09-01T01:57:38;15.60;99.90
8595;DHT22;4335;48.860;9.198;2022-09-01T02:00:10;15.60;99.90
8595;DHT22;4335;48.860;9.198;2022-09-01T02:02:44;15.50;99.90
8595;DHT22;4335;48.860;9.198;2022-09-01T02:05:19;15.50;99.90
8595;DHT22;4335;48.860;9.198;2022-09-01T02:07:52;15.50;99.90
8595;DHT22;4335;48.860;9.198;2022-09-01T02:10:23;15.60;99.90
8595;DHT22;4335;48.860;9.198;2022-09-01T02:12:52;15.60;99.90
8595;DHT22;4335;48.860;9.198;2022-09-01T02:15:19;15.60;99.90
8595;DHT22;4335;48.860;9.198;2022-09-01T02:17:50;15.50;99.90
8595;DHT22;4335;48.860;9.198;2022-09-01T02:20:18;15.50;99.90
8595;DHT22;4335;48.860;9.198;2022-09-01T02:22:46;15.40;99.90
8595;DHT22;4335;48.860;9.198;2022-09-01T02:25:19;15.40;99.90
8595;DHT22;4335;48.860;9.198;2022-09-01T02:27:46;15.40;99.90
8595;DHT22;4335;48.860;9.198;2022-09-01T02:30:23;15.40;99.90
8595;DHT22;4335;48.860;9.198;2022-09-01T02:32:51;15.40;99.90
8595;DHT22;4335;48.860;9.198;2022-09-01T02:35:18;15.30;99.90
8595;DHT22;4335;48.860;9.198;2022-09-01T02:37:44;15.30;99.90
8595;DHT22;4335;48.860;9.198;2022-09-01T02:40:14;15.30;99.90
8595;DHT22;4335;48.860;9.198;2022-09-01T02:42:40;15.30;99.90
8595;DHT22;4335;48.860;9.198;2022-09-01T02:45:09;15.20;99.90
8595;DHT22;4335;48.860;9.198;2022-09-01T02:47:43;15.20;99.90
8595;DHT22;4335;48.860;9.198;2022-09-01T02:50:12;15.20;99.90
8595;DHT22;4335;48.860;9.198;2022-09-01T02:52:50;15.20;99.90
8595;DHT22;4335;48.860;9.198;2022-09-01T02:55:18;15.20;99.90
8595;DHT22;4335;48.860;9.198;2022-09-01T02:57:56;15.10;99.90
8595;DHT22;4335;48.860;9.198;2022-09-01T03:00:24;15.10;99.90
8595;DHT22;4335;48.860;9.198;2022-09-01T03:02:57;15.10;99.90
8595;DHT22;4335;48.860;9.198;2022-09-01T03:05:26;15.10;99.90
8595;DHT22;4335;48.860;9.198;2022-09-01T03:07:55;15.00;99.90
8595;DHT22;4335;48.860;9.198;2022-09-01T03:10:24;15.00;99.90
8595;DHT22;4335;48.860;9.198;2022-09-01T03:12:59;15.00;99.90
8595;DHT22;4335;48.860;9.198;2022-09-01T03:15:30;15.00;99.90
8595;DHT22;4335;48.860;9.198;2022-09-01T03:17:58;15.00;99.90
8595;DHT22;4335;48.860;9.198;2022-09-01T03:20:26;15.00;99.90
8595;DHT22;4335;48.860;9.198;2022-09-01T03:22:53;15.00;99.90
8595;DHT22;4335;48.860;9.198;2022-09-01T03:25:22;14.90;99.90
8595;DHT22;4335;48.860;9.198;2022-09-01T03:27:50;14.90;99.90
8595;DHT22;4335;48.860;9.198;2022-09-01T03:30:17;14.90;99.90
8595;DHT22;4335;48.860;9.198;2022-09-01T03:32:45;14.90;99.90
8595;DHT22;4335;48.860;9.198;2022-09-01T03:35:12;14.80;99.90
8595;DHT22;4335;48.860;9.198;2022-09-01T03:37:39;14.80;99.90
8595;DHT22;4335;48.860;9.198;2022-09-01T03:40:10;14.80;99.90
8595;DHT22;4335;48.860;9.198;2022-09-01T03:42:38;14.80;99.90
8595;DHT22;4335;48.860;9.198;2022-09-01T03:45:06;14.70;99.90
8595;DHT22;4335;48.860;9.198;2022-09-01T03:47:38;14.70;99.90
8595;DHT22;4335;48.860;9.198;2022-09-01T03:50:14;14.70;99.90
8595;DHT22;4335;48.860;9.198;2022-09-01T03:52:45;14.60;99.90
8595;DHT22;4335;48.860;9.198;2022-09-01T03:55:13;14.60;99.90
8595;DHT22;4335;48.860;9.198;2022-09-01T03:57:46;14.60;99.90
8595;DHT22;4335;48.860;9.198;2022-09-01T04:00:16;14.60;99.90
8595;DHT22;4335;48.860;9.198;2022-09-01T04:02:46;14.60;99.90
8595;DHT22;4335;48.860;9.198;2022-09-01T04:05:15;14.60;99.90
8595;DHT22;4335;48.860;9.198;2022-09-01T04:07:45;14.60;99.90
8595;DHT22;4335;48.860;9.198;2022-09-01T04:10:13;14.60;99.90
8595;DHT22;4335;48.860;9.198;2022-09-01T04:12:40;14.70;99.90
8595;DHT22;4335;48.860;9.198;2022-09-01T04:15:22;14.80;99.90
8595;DHT22;4335;48.860;9.198;2022-09-01T04:17:49;14.90;99.90
8595;DHT22;4335;48.860;9.198;2022-09-01T04:20:35;14.90;99.90
8595;DHT22;4335;48.860;9.198;2022-09-01T04:23:13;14.90;99.90
8595;DHT22;4335;48.860;9.198;2022-09-01T04:25:41;14.90;99.90
8595;DHT22;4335;48.860;9.198;2022-09-01T04:28:08;14.90;99.90
8595;DHT22;4335;48.860;9.198;2022-09-01T04:30:42;14.80;99.90
8595;DHT22;4335;48.860;9.198;2022-09-01T04:33:12;14.70;99.90
8595;DHT22;4335;48.860;9.198;2022-09-01T04:35:42;14.70;99.90
8595;DHT22;4335;48.860;9.198;2022-09-01T04:38:12;14.60;99.90
8595;DHT22;4335;48.860;9.198;2022-09-01T04:40:41;14.60;99.90
8595;DHT22;4335;48.860;9.198;2022-09-01T04:43:09;14.50;99.90
8595;DHT22;4335;48.860;9.198;2022-09-01T04:45:36;14.50;99.90
8595;DHT22;4335;48.860;9.198;2022-09-01T04:48:03;14.50;99.90
8595;DHT22;4335;48.860;9.198;2022-09-01T04:50:30;14.50;99.90
8595;DHT22;4335;48.860;9.198;2022-09-01T04:52:59;14.50;99.90
8595;DHT22;4335;48.860;9.198;2022-09-01T04:55:26;14.50;99.90
8595;DHT22;4335;48.860;9.198;2022-09-01T04:57:56;14.50;99.90
8595;DHT22;4335;48.860;9.198;2022-09-01T05:00:33;14.50;99.90
8595;DHT22;4335;48.860;9.198;2022-09-01T05:03:02;14.60;99.90
8595;DHT22;4335;48.860;9.198;2022-09-01T05:05:36;14.70;99.90
8595;DHT22;4335;48.860;9.198;2022-09-01T05:08:05;14.80;99.90
8595;DHT22;4335;48.860;9.198;2022-09-01T05:10:32;15.00;99.90
8595;DHT22;4335;48.860;9.198;2022-09-01T05:13:07;15.20;99.90
8595;DHT22;4335;48.860;9.198;2022-09-01T05:15:35;15.30;99.90
8595;DHT22;4335;48.860;9.198;2022-09-01T05:18:03;15.50;99.90
8595;DHT22;4335;48.860;9.198;2022-09-01T05:20:38;15.70;99.90
8595;DHT22;4335;48.860;9.198;2022-09-01T05:23:11;15.80;99.90
8595;DHT22;4335;48.860;9.198;2022-09-01T05:25:42;15.80;99.90
8595;DHT22;4335;48.860;9.198;2022-09-01T05:28:11;15.90;99.90
8595;DHT22;4335;48.860;9.198;2022-09-01T05:30:39;16.00;99.90
8595;DHT22;4335;48.860;9.198;2022-09-01T05:33:09;16.10;99.90
8595;DHT22;4335;48.860;9.198;2022-09-01T05:35:50;16.30;99.90
8595;DHT22;4335;48.860;9.198;2022-09-01T05:38:22;16.40;99.90
8595;DHT22;4335;48.860;9.198;2022-09-01T05:40:55;16.60;99.90
8595;DHT22;4335;48.860;9.198;2022-09-01T05:43:33;16.70;99.90
8595;DHT22;4335;48.860;9.198;2022-09-01T05:46:06;16.80;99.90
8595;DHT22;4335;48.860;9.198;2022-09-01T05:48:33;16.90;99.90
8595;DHT22;4335;48.860;9.198;2022-09-01T05:51:08;17.10;99.90
8595;DHT22;4335;48.860;9.198;2022-09-01T05:53:36;17.40;99.90
8595;DHT22;4335;48.860;9.198;2022-09-01T05:56:06;17.70;99.90
8595;DHT22;4335;48.860;9.198;2022-09-01T05:58:37;18.20;99.90
8595;DHT22;4335;48.860;9.198;2022-09-01T06:01:05;18.70;99.90
8595;DHT22;4335;48.860;9.198;2022-09-01T06:03:32;19.10;99.90
8595;DHT22;4335;48.860;9.198;2022-09-01T06:06:02;19.80;99.90
8595;DHT22;4335;48.860;9.198;2022-09-01T06:08:37;20.20;99.90
8595;DHT22;4335;48.860;9.198;2022-09-01T06:11:05;20.70;99.90
8595;DHT22;4335;48.860;9.198;2022-09-01T06:13:39;21.00;99.90
8595;DHT22;4335;48.860;9.198;2022-09-01T06:16:07;21.50;99.90
8595;DHT22;4335;48.860;9.198;2022-09-01T06:18:36;21.90;99.90
8595;DHT22;4335;48.860;9.198;2022-09-01T06:21:07;21.80;99.90
8595;DHT22;4335;48.860;9.198;2022-09-01T06:23:37;22.00;99.90
8595;DHT22;4335;48.860;9.198;2022-09-01T06:26:07;22.00;99.90
8595;DHT22;4335;48.860;9.198;2022-09-01T06:28:42;22.10;99.90
8595;DHT22;4335;48.860;9.198;2022-09-01T06:31:08;22.30;99.90
8595;DHT22;4335;48.860;9.198;2022-09-01T06:33:37;22.70;99.90
8595;DHT22;4335;48.860;9.198;2022-09-01T06:36:07;23.10;99.90
8595;DHT22;4335;48.860;9.198;2022-09-01T06:38:34;22.90;99.90
8595;DHT22;4335;48.860;9.198;2022-09-01T06:41:08;23.10;99.90
8595;DHT22;4335;48.860;9.198;2022-09-01T06:43:40;23.40;99.90
8595;DHT22;4335;48.860;9.198;2022-09-01T06:46:08;23.70;99.90
8595;DHT22;4335;48.860;9.198;2022-09-01T06:48:40;23.90;99.90
8595;DHT22;4335;48.860;9.198;2022-09-01T06:51:12;24.00;99.90
8595;DHT22;4335;48.860;9.198;2022-09-01T06:53:39;24.70;99.90
8595;DHT22;4335;48.860;9.198;2022-09-01T06:56:07;25.90;99.90
8595;DHT22;4335;48.860;9.198;2022-09-01T06:58:41;26.40;99.90
8595;DHT22;4335;48.860;9.198;2022-09-01T07:01:10;26.80;99.90
8595;DHT22;4335;48.860;9.198;2022-09-01T07:03:48;26.50;99.90
8595;DHT22;4335;48.860;9.198;2022-09-01T07:06:16;26.00;99.90
8595;DHT22;4335;48.860;9.198;2022-09-01T07:08:43;25.70;99.90
8595;DHT22;4335;48.860;9.198;2022-09-01T07:11:20;25.40;99.90
8595;DHT22;4335;48.860;9.198;2022-09-01T07:13:50;25.00;99.90
8595;DHT22;4335;48.860;9.198;2022-09-01T07:16:23;24.30;99.90
8595;DHT22;4335;48.860;9.198;2022-09-01T07:18:52;23.80;99.90
8595;DHT22;4335;48.860;9.198;2022-09-01T07:21:25;23.40;99.90
8595;DHT22;4335;48.860;9.198;2022-09-01T07:23:55;22.90;99.90
8595;DHT22;4335;48.860;9.198;2022-09-01T07:26:25;22.70;99.90
8595;DHT22;4335;48.860;9.198;2022-09-01T07:28:56;22.50;99.90
8595;DHT22;4335;48.860;9.198;2022-09-01T07:31:30;22.30;99.90
8595;DHT22;4335;48.860;9.198;2022-09-01T07:34:03;22.50;99.90
8595;DHT22;4335;48.860;9.198;2022-09-01T07:36:30;22.30;99.90
8595;DHT22;4335;48.860;9.198;2022-09-01T07:38:57;22.30;99.90
8595;DHT22;4335;48.860;9.198;2022-09-01T07:41:27;22.30;99.90
8595;DHT22;4335;48.860;9.198;2022-09-01T07:43:57;22.30;99.90
8595;DHT22;4335;48.860;9.198;2022-09-01T07:46:40;22.20;99.90
8595;DHT22;4335;48.860;9.198;2022-09-01T07:49:08;22.40;99.90
8595;DHT22;4335;48.860;9.198;2022-09-01T07:51:35;23.00;99.90
8595;DHT22;4335;48.860;9.198;2022-09-01T07:54:05;24.10;99.90
8595;DHT22;4335;48.860;9.198;2022-09-01T07:56:36;24.50;99.90
8595;DHT22;4335;48.860;9.198;2022-09-01T07:59:05;24.60;99.90
8595;DHT22;4335;48.860;9.198;2022-09-01T08:01:32;24.40;99.90
8595;DHT22;4335;48.860;9.198;2022-09-01T08:03:59;25.00;99.90
8595;DHT22;4335;48.860;9.198;2022-09-01T08:06:29;24.80;99.90
8595;DHT22;4335;48.860;9.198;2022-09-01T08:08:59;24.40;99.90
8595;DHT22;4335;48.860;9.198;2022-09-01T08:11:28;23.90;99.90
8595;DHT22;4335;48.860;9.198;2022-09-01T08:13:59;23.10;99.90
8595;DHT22;4335;48.860;9.198;2022-09-01T08:16:33;22.60;99.90
8595;DHT22;4335;48.860;9.198;2022-09-01T08:19:00;22.50;99.90
8595;DHT22;4335;48.860;9.198;2022-09-01T08:21:26;22.50;99.90
8595;DHT22;4335;48.860;9.198;2022-09-01T08:23:54;22.20;99.90
8595;DHT22;4335;48.860;9.198;2022-09-01T08:26:22;22.20;99.90
8595;DHT22;4335;48.860;9.198;2022-09-01T08:28:50;22.10;99.90
8595;DHT22;4335;48.860;9.198;2022-09-01T08:31:22;22.00;99.90
8595;DHT22;4335;48.860;9.198;2022-09-01T08:33:52;22.00;99.90
8595;DHT22;4335;48.860;9.198;2022-09-01T08:36:19;22.00;99.90
8595;DHT22;4335;48.860;9.198;2022-09-01T08:38:46;21.90;99.90
8595;DHT22;4335;48.860;9.198;2022-09-01T08:41:16;21.80;99.90
8595;DHT22;4335;48.860;9.198;2022-09-01T08:43:52;22.40;99.90
8595;DHT22;4335;48.860;9.198;2022-09-01T08:46:28;22.80;99.90
8595;DHT22;4335;48.860;9.198;2022-09-01T08:48:57;23.00;99.90
8595;DHT22;4335;48.860;9.198;2022-09-01T08:51:34;23.00;99.90
8595;DHT22;4335;48.860;9.198;2022-09-01T08:54:08;22.80;99.90
8595;DHT22;4335;48.860;9.198;2022-09-01T08:56:36;22.60;99.90
8595;DHT22;4335;48.860;9.198;2022-09-01T08:59:05;22.40;99.90
8595;DHT22;4335;48.860;9.198;2022-09-01T09:01:39;22.20;99.90
8595;DHT22;4335;48.860;9.198;2022-09-01T09:04:20;22.30;99.90
8595;DHT22;4335;48.860;9.198;2022-09-01T09:07:01;22.50;99.90
8595;DHT22;4335;48.860;9.198;2022-09-01T09:09:36;22.60;99.90
8595;DHT22;4335;48.860;9.198;2022-09-01T09:12:30;22.50;99.90
8595;DHT22;4335;48.860;9.198;2022-09-01T09:15:06;22.30;99.90
8595;DHT22;4335;48.860;9.198;2022-09-01T09:17:45;22.20;99.90
8595;DHT22;4335;48.860;9.198;2022-09-01T09:20:21;22.00;99.90
8595;DHT22;4335;48.860;9.198;2022-09-01T09:22:48;22.00;99.90
8595;DHT22;4335;48.860;9.198;2022-09-01T09:25:17;21.90;99.90
8595;DHT22;4335;48.860;9.198;2022-09-01T09:27:45;21.90;99.90
8595;DHT22;4335;48.860;9.198;2022-09-01T09:30:14;21.80;99.90
8595;DHT22;4335;48.860;9.198;2022-09-01T09:32:47;21.60;99.90
8595;DHT22;4335;48.860;9.198;2022-09-01T09:35:26;21.50;99.90
8595;DHT22;4335;48.860;9.198;2022-09-01T09:37:54;21.40;99.90
8595;DHT22;4335;48.860;9.198;2022-09-01T09:40:23;21.40;99.90
8595;DHT22;4335;48.860;9.198;2022-09-01T09:43:05;21.40;99.90
8595;DHT22;4335;48.860;9.198;2022-09-01T09:45:37;21.40;99.90
8595;DHT22;4335;48.860;9.198;2022-09-01T09:48:07;21.40;99.90
8595;DHT22;4335;48.860;9.198;2022-09-01T09:50:36;21.20;99.90
8595;DHT22;4335;48.860;9.198;2022-09-01T09:53:15;21.10;99.90
8595;DHT22;4335;48.860;9.198;2022-09-01T09:55:58;21.00;99.90
8595;DHT22;4335;48.860;9.198;2022-09-01T09:58:32;20.80;99.90
8595;DHT22;4335;48.860;9.198;2022-09-01T10:01:07;20.80;99.90
8595;DHT22;4335;48.860;9.198;2022-09-01T10:03:38;20.90;99.90
8595;DHT22;4335;48.860;9.198;2022-09-01T10:06:10;21.00;99.90
8595;DHT22;4335;48.860;9.198;2022-09-01T10:08:40;21.20;99.90
8595;DHT22;4335;48.860;9.198;2022-09-01T10:11:23;21.50;99.90
8595;DHT22;4335;48.860;9.198;2022-09-01T10:13:57;21.70;99.90
8595;DHT22;4335;48.860;9.198;2022-09-01T10:16:27;21.90;99.90
8595;DHT22;4335;48.860;9.198;2022-09-01T10:18:58;22.20;99.90
8595;DHT22;4335;48.860;9.198;2022-09-01T10:21:32;22.30;99.90
8595;DHT22;4335;48.860;9.198;2022-09-01T10:24:01;22.80;99.90
8595;DHT22;4335;48.860;9.198;2022-09-01T10:26:34;23.60;99.90
8595;DHT22;4335;48.860;9.198;2022-09-01T10:29:14;24.20;99.90
8595;DHT22;4335;48.860;9.198;2022-09-01T10:31:44;24.40;99.90
8595;DHT22;4335;48.860;9.198;2022-09-01T10:34:16;24.30;99.90
8595;DHT22;4335;48.860;9.198;2022-09-01T10:36:45;24.00;99.90
8595;DHT22;4335;48.860;9.198;2022-09-01T10:39:18;23.90;99.90
8595;DHT22;4335;48.860;9.198;2022-09-01T10:41:48;23.90;99.90
8595;DHT22;4335;48.860;9.198;2022-09-01T10:44:20;23.70;99.90
8595;DHT22;4335;48.860;9.198;2022-09-01T10:46:48;23.70;99.90
8595;DHT22;4335;48.860;9.198;2022-09-01T10:52:52;23.60;99.90
8595;DHT22;4335;48.860;9.198;2022-09-01T10:55:25;23.50;99.90
8595;DHT22;4335;48.860;9.198;2022-09-01T10:58:05;23.20;99.90
8595;DHT22;4335;48.860;9.198;2022-09-01T11:00:57;23.00;99.90
8595;DHT22;4335;48.860;9.198;2022-09-01T11:06:55;23.10;99.90
8595;DHT22;4335;48.860;9.198;2022-09-01T11:09:34;23.40;99.90
8595;DHT22;4335;48.860;9.198;2022-09-01T11:15:03;23.70;99.90
8595;DHT22;4335;48.860;9.198;2022-09-01T11:17:32;23.80;99.90
8595;DHT22;4335;48.860;9.198;2022-09-01T11:20:06;23.80;99.90
8595;DHT22;4335;48.860;9.198;2022-09-01T11:22:39;23.50;99.90
8595;DHT22;4335;48.860;9.198;2022-09-01T11:31:28;22.60;99.90
8595;DHT22;4335;48.860;9.198;2022-09-01T11:34:10;22.30;99.90
8595;DHT22;4335;48.860;9.198;2022-09-01T11:37:09;22.20;99.90
8595;DHT22;4335;48.860;9.198;2022-09-01T11:39:40;22.30;99.90
8595;DHT22;4335;48.860;9.198;2022-09-01T11:42:17;22.50;99.90
8595;DHT22;4335;48.860;9.198;2022-09-01T11:44:48;22.70;99.90
8595;DHT22;4335;48.860;9.198;2022-09-01T11:47:22;22.90;99.90
8595;DHT22;4335;48.860;9.198;2022-09-01T11:49:57;22.80;99.90
8595;DHT22;4335;48.860;9.198;2022-09-01T11:52:26;22.70;99.90
8595;DHT22;4335;48.860;9.198;2022-09-01T11:54:55;22.60;99.90
8595;DHT22;4335;48.860;9.198;2022-09-01T11:57:25;22.50;99.90
8595;DHT22;4335;48.860;9.198;2022-09-01T11:59:52;22.40;99.90
8595;DHT22;4335;48.860;9.198;2022-09-01T12:02:25;22.30;99.90
8595;DHT22;4335;48.860;9.198;2022-09-01T12:04:53;22.20;99.90
8595;DHT22;4335;48.860;9.198;2022-09-01T12:07:32;22.20;99.90
8595;DHT22;4335;48.860;9.198;2022-09-01T12:10:00;22.30;99.90
8595;DHT22;4335;48.860;9.198;2022-09-01T12:12:35;22.50;99.90
8595;DHT22;4335;48.860;9.198;2022-09-01T12:15:05;22.60;99.90
8595;DHT22;4335;48.860;9.198;2022-09-01T12:17:34;22.70;99.90
8595;DHT22;4335;48.860;9.198;2022-09-01T12:20:22;22.80;99.90
8595;DHT22;4335;48.860;9.198;2022-09-01T12:22:56;22.90;99.90
8595;DHT22;4335;48.860;9.198;2022-09-01T12:25:25;22.90;99.90
8595;DHT22;4335;48.860;9.198;2022-09-01T12:28:03;23.10;99.90
8595;DHT22;4335;48.860;9.198;2022-09-01T12:30:34;23.30;99.90
8595;DHT22;4335;48.860;9.198;2022-09-01T12:33:06;23.30;99.90
8595;DHT22;4335;48.860;9.198;2022-09-01T12:35:33;23.30;99.90
8595;DHT22;4335;48.860;9.198;2022-09-01T12:38:23;23.10;99.90
8595;DHT22;4335;48.860;9.198;2022-09-01T12:40:52;22.80;99.90
8595;DHT22;4335;48.860;9.198;2022-09-01T12:43:34;22.60;99.90
8595;DHT22;4335;48.860;9.198;2022-09-01T12:46:01;22.30;99.90
8595;DHT22;4335;48.860;9.198;2022-09-01T12:48:31;22.30;99.90
8595;DHT22;4335;48.860;9.198;2022-09-01T12:50:59;22.20;99.90
8595;DHT22;4335;48.860;9.198;2022-09-01T12:53:29;22.20;99.90
8595;DHT22;4335;48.860;9.198;2022-09-01T12:56:17;22.20;99.90
8595;DHT22;4335;48.860;9.198;2022-09-01T12:58:47;22.20;99.90
8595;DHT22;4335;48.860;9.198;2022-09-01T13:01:29;22.20;99.90
8595;DHT22;4335;48.860;9.198;2022-09-01T13:04:26;22.30;99.90
8595;DHT22;4335;48.860;9.198;2022-09-01T13:07:02;22.30;99.90
8595;DHT22;4335;48.860;9.198;2022-09-01T13:09:33;22.20;99.90
8595;DHT22;4335;48.860;9.198;2022-09-01T13:12:19;22.20;99.90
8595;DHT22;4335;48.860;9.198;2022-09-01T13:14:48;22.10;99.90
8595;DHT22;4335;48.860;9.198;2022-09-01T13:17:14;22.00;99.90
8595;DHT22;4335;48.860;9.198;2022-09-01T13:19:42;22.00;99.90
8595;DHT22;4335;48.860;9.198;2022-09-01T13:22:09;22.10;99.90
8595;DHT22;4335;48.860;9.198;2022-09-01T13:24:36;22.00;99.90
8595;DHT22;4335;48.860;9.198;2022-09-01T13:27:04;21.90;99.90
8595;DHT22;4335;48.860;9.198;2022-09-01T13:29:31;21.80;99.90
8595;DHT22;4335;48.860;9.198;2022-09-01T13:31:58;21.90;99.90
8595;DHT22;4335;48.860;9.198;2022-09-01T13:34:26;21.80;99.90
8595;DHT22;4335;48.860;9.198;2022-09-01T13:36:55;21.70;99.90
8595;DHT22;4335;48.860;9.198;2022-09-01T13:39:22;21.70;99.90
8595;DHT22;4335;48.860;9.198;2022-09-01T13:41:49;21.70;99.90
8595;DHT22;4335;48.860;9.198;2022-09-01T13:44:16;21.70;99.90
8595;DHT22;4335;48.860;9.198;2022-09-01T13:46:43;21.70;99.90
8595;DHT22;4335;48.860;9.198;2022-09-01T13:49:10;21.70;99.90
8595;DHT22;4335;48.860;9.198;2022-09-01T13:51:37;21.70;99.90
8595;DHT22;4335;48.860;9.198;2022-09-01T13:54:04;21.70;99.90
8595;DHT22;4335;48.860;9.198;2022-09-01T13:56:34;21.80;99.90
8595;DHT22;4335;48.860;9.198;2022-09-01T13:59:02;22.00;99.90
8595;DHT22;4335;48.860;9.198;2022-09-01T14:01:28;22.10;99.90
8595;DHT22;4335;48.860;9.198;2022-09-01T14:03:55;22.20;99.90
8595;DHT22;4335;48.860;9.198;2022-09-01T14:06:23;22.40;99.90
8595;DHT22;4335;48.860;9.198;2022-09-01T14:08:50;22.40;99.90
8595;DHT22;4335;48.860;9.198;2022-09-01T14:11:23;22.50;99.90
8595;DHT22;4335;48.860;9.198;2022-09-01T14:13:51;22.50;99.90
8595;DHT22;4335;48.860;9.198;2022-09-01T14:16:17;22.50;99.90
8595;DHT22;4335;48.860;9.198;2022-09-01T14:18:44;22.50;99.90
8595;DHT22;4335;48.860;9.198;2022-09-01T14:21:17;22.60;99.90
8595;DHT22;4335;48.860;9.198;2022-09-01T14:23:44;22.70;99.90
8595;DHT22;4335;48.860;9.198;2022-09-01T14:26:13;22.70;99.90
8595;DHT22;4335;48.860;9.198;2022-09-01T14:28:44;22.70;99.90
8595;DHT22;4335;48.860;9.198;2022-09-01T14:31:14;22.60;99.90
8595;DHT22;4335;48.860;9.198;2022-09-01T14:33:44;22.60;99.90
8595;DHT22;4335;48.860;9.198;2022-09-01T14:36:18;22.70;99.90
8595;DHT22;4335;48.860;9.198;2022-09-01T14:38:45;22.70;99.90
8595;DHT22;4335;48.860;9.198;2022-09-01T14:41:12;22.60;99.90
8595;DHT22;4335;48.860;9.198;2022-09-01T14:43:40;22.50;99.90
8595;DHT22;4335;48.860;9.198;2022-09-01T14:46:11;22.50;99.90
8595;DHT22;4335;48.860;9.198;2022-09-01T14:48:42;22.50;99.90
8595;DHT22;4335;48.860;9.198;2022-09-01T14:51:16;22.40;99.90
8595;DHT22;4335;48.860;9.198;2022-09-01T14:53:47;22.40;99.90
8595;DHT22;4335;48.860;9.198;2022-09-01T14:56:14;22.50;99.90
8595;DHT22;4335;48.860;9.198;2022-09-01T14:58:43;22.60;99.90
8595;DHT22;4335;48.860;9.198;2022-09-01T15:01:13;22.70;99.90
8595;DHT22;4335;48.860;9.198;2022-09-01T15:03:46;22.70;99.90
8595;DHT22;4335;48.860;9.198;2022-09-01T15:06:14;22.90;99.90
8595;DHT22;4335;48.860;9.198;2022-09-01T15:08:45;23.00;99.90
8595;DHT22;4335;48.860;9.198;2022-09-01T15:11:15;23.20;99.90
8595;DHT22;4335;48.860;9.198;2022-09-01T15:13:45;23.20;99.90
8595;DHT22;4335;48.860;9.198;2022-09-01T15:16:14;23.30;99.90
8595;DHT22;4335;48.860;9.198;2022-09-01T15:18:41;23.20;99.90
8595;DHT22;4335;48.860;9.198;2022-09-01T15:21:16;23.20;99.90
8595;DHT22;4335;48.860;9.198;2022-09-01T15:23:43;23.20;99.90
8595;DHT22;4335;48.860;9.198;2022-09-01T15:26:09;23.20;99.90
8595;DHT22;4335;48.860;9.198;2022-09-01T15:28:36;23.20;99.90
8595;DHT22;4335;48.860;9.198;2022-09-01T15:31:08;23.20;99.90
8595;DHT22;4335;48.860;9.198;2022-09-01T15:33:38;23.20;99.90
8595;DHT22;4335;48.860;9.198;2022-09-01T15:36:05;23.10;99.90
8595;DHT22;4335;48.860;9.198;2022-09-01T15:38:35;23.00;99.90
8595;DHT22;4335;48.860;9.198;2022-09-01T15:41:02;23.00;99.90
8595;DHT22;4335;48.860;9.198;2022-09-01T15:43:31;23.00;99.90
8595;DHT22;4335;48.860;9.198;2022-09-01T15:45:59;23.10;99.90
8595;DHT22;4335;48.860;9.198;2022-09-01T15:48:30;23.10;99.90
8595;DHT22;4335;48.860;9.198;2022-09-01T15:51:20;23.10;99.90
8595;DHT22;4335;48.860;9.198;2022-09-01T15:53:54;23.10;99.90
8595;DHT22;4335;48.860;9.198;2022-09-01T15:56:21;23.20;99.90
8595;DHT22;4335;48.860;9.198;2022-09-01T15:58:49;23.30;99.90
8595;DHT22;4335;48.860;9.198;2022-09-01T16:01:17;23.40;99.90
8595;DHT22;4335;48.860;9.198;2022-09-01T16:03:47;23.40;99.90
8595;DHT22;4335;48.860;9.198;2022-09-01T16:06:14;23.30;99.90
8595;DHT22;4335;48.860;9.198;2022-09-01T16:08:42;23.20;99.90
8595;DHT22;4335;48.860;9.198;2022-09-01T16:11:09;23.10;99.90
8595;DHT22;4335;48.860;9.198;2022-09-01T16:13:41;23.00;99.90
8595;DHT22;4335;48.860;9.198;2022-09-01T16:16:20;22.90;99.90
8595;DHT22;4335;48.860;9.198;2022-09-01T16:18:54;22.80;99.90
8595;DHT22;4335;48.860;9.198;2022-09-01T16:21:28;22.80;99.90
8595;DHT22;4335;48.860;9.198;2022-09-01T16:23:57;22.80;99.90
8595;DHT22;4335;48.860;9.198;2022-09-01T16:26:29;22.70;99.90
8595;DHT22;4335;48.860;9.198;2022-09-01T16:28:59;22.70;99.90
8595;DHT22;4335;48.860;9.198;2022-09-01T16:31:30;22.70;99.90
8595;DHT22;4335;48.860;9.198;2022-09-01T16:33:59;22.70;99.90
8595;DHT22;4335;48.860;9.198;2022-09-01T16:36:33;22.70;99.90
8595;DHT22;4335;48.860;9.198;2022-09-01T16:39:15;22.70;99.90
8595;DHT22;4335;48.860;9.198;2022-09-01T16:41:52;22.70;99.90
8595;DHT22;4335;48.860;9.198;2022-09-01T16:44:30;22.70;99.90